sensor_id;sensor_type;location;lat;lon;timestamp;P1;durP1;ratioP1;P2;durP2;ratioP2
52414;SDS011;38340;52.964;6.086;2023-05-06T00:00:50;71.68;;;6.68;;
52414;SDS011;38340;52.964;6.086;2023-05-06T00:03:16;30.98;;;5.18;;
52414;SDS011;38340;52.964;6.086;2023-05-06T00:05:41;27.67;;;5.95;;
52414;SDS011;38340;52.964;6.086;2023-05-06T00:08:09;49.42;;;7.50;;
52414;SDS011;38340;52.964;6.086;2023-05-06T00:10:35;36.97;;;7.00;;
52414;SDS011;38340;52.964;6.086;2023-05-06T00:13:01;82.18;;;9.00;;
52414;SDS011;38340;52.964;6.086;2023-05-06T00:15:27;146.07;;;10.73;;
52414;SDS011;38340;52.964;6.086;2023-05-06T00:17:53;39.17;;;7.57;;
52414;SDS011;38340;52.964;6.086;2023-05-06T00:20:19;25.13;;;5.72;;
52414;SDS011;38340;52.964;6.086;2023-05-06T00:22:45;29.88;;;5.75;;
52414;SDS011;38340;52.964;6.086;2023-05-06T00:25:11;5.72;;;4.72;;
52414;SDS011;38340;52.964;6.086;2023-05-06T00:27:37;5.10;;;4.55;;
52414;SDS011;38340;52.964;6.086;2023-05-06T00:30:03;4.72;;;4.32;;
52414;SDS011;38340;52.964;6.086;2023-05-06T00:32:29;4.82;;;4.32;;
52414;SDS011;38340;52.964;6.086;2023-05-06T00:34:55;13.43;;;4.90;;
52414;SDS011;38340;52.964;6.086;2023-05-06T00:37:21;5.18;;;4.45;;
52414;SDS011;38340;52.964;6.086;2023-05-06T00:39:46;5.70;;;5.10;;
52414;SDS011;38340;52.964;6.086;2023-05-06T00:42:12;5.63;;;5.07;;
52414;SDS011;38340;52.964;6.086;2023-05-06T00:44:38;5.53;;;5.03;;
52414;SDS011;38340;52.964;6.086;2023-05-06T00:47:03;5.78;;;5.18;;
52414;SDS011;38340;52.964;6.086;2023-05-06T00:49:30;6.30;;;5.47;;
52414;SDS011;38340;52.964;6.086;2023-05-06T00:51:56;6.13;;;5.47;;
52414;SDS011;38340;52.964;6.086;2023-05-06T00:54:25;7.03;;;6.32;;
52414;SDS011;38340;52.964;6.086;2023-05-06T00:56:53;7.82;;;7.03;;
52414;SDS011;38340;52.964;6.086;2023-05-06T00:59:20;7.95;;;7.10;;
52414;SDS011;38340;52.964;6.086;2023-05-06T01:01:46;9.25;;;8.10;;
52414;SDS011;38340;52.964;6.086;2023-05-06T01:04:14;11.80;;;8.50;;
52414;SDS011;38340;52.964;6.086;2023-05-06T01:06:40;9.20;;;7.70;;
52414;SDS011;38340;52.964;6.086;2023-05-06T01:11:54;9.48;;;8.45;;
52414;SDS011;38340;52.964;6.086;2023-05-06T01:17:24;11.68;;;9.38;;
52414;SDS011;38340;52.964;6.086;2023-05-06T01:19:55;9.43;;;8.35;;
52414;SDS011;38340;52.964;6.086;2023-05-06T01:22:23;11.57;;;9.07;;
52414;SDS011;38340;52.964;6.086;2023-05-06T01:24:51;12.02;;;9.48;;
52414;SDS011;38340;52.964;6.086;2023-05-06T01:27:16;11.45;;;9.07;;
52414;SDS011;38340;52.964;6.086;2023-05-06T01:29:43;11.68;;;10.45;;
52414;SDS011;38340;52.964;6.086;2023-05-06T01:40:46;12.48;;;10.65;;
52414;SDS011;38340;52.964;6.086;2023-05-06T01:43:18;10.98;;;9.35;;
52414;SDS011;38340;52.964;6.086;2023-05-06T01:45:45;11.40;;;10.15;;
52414;SDS011;38340;52.964;6.086;2023-05-06T01:48:18;12.07;;;9.73;;
52414;SDS011;38340;52.964;6.086;2023-05-06T01:50:46;13.52;;;11.50;;
52414;SDS011;38340;52.964;6.086;2023-05-06T01:53:12;14.30;;;11.85;;
52414;SDS011;38340;52.964;6.086;2023-05-06T01:55:38;15.43;;;11.85;;
52414;SDS011;38340;52.964;6.086;2023-05-06T01:58:03;14.18;;;11.25;;
52414;SDS011;38340;52.964;6.086;2023-05-06T02:00:29;13.93;;;10.95;;
52414;SDS011;38340;52.964;6.086;2023-05-06T02:02:55;14.52;;;11.63;;
52414;SDS011;38340;52.964;6.086;2023-05-06T02:05:20;14.85;;;11.48;;
52414;SDS011;38340;52.964;6.086;2023-05-06T02:07:46;16.23;;;12.10;;
52414;SDS011;38340;52.964;6.086;2023-05-06T02:10:12;14.90;;;11.52;;
52414;SDS011;38340;52.964;6.086;2023-05-06T02:12:37;15.07;;;11.95;;
52414;SDS011;38340;52.964;6.086;2023-05-06T02:15:03;14.82;;;12.18;;
52414;SDS011;38340;52.964;6.086;2023-05-06T02:17:29;16.15;;;12.45;;
52414;SDS011;38340;52.964;6.086;2023-05-06T02:19:55;15.82;;;12.18;;
52414;SDS011;38340;52.964;6.086;2023-05-06T02:22:21;13.68;;;11.50;;
52414;SDS011;38340;52.964;6.086;2023-05-06T02:24:46;15.20;;;11.63;;
52414;SDS011;38340;52.964;6.086;2023-05-06T02:27:12;13.02;;;10.57;;
52414;SDS011;38340;52.964;6.086;2023-05-06T02:29:38;15.30;;;12.02;;
52414;SDS011;38340;52.964;6.086;2023-05-06T02:32:03;12.05;;;10.20;;
52414;SDS011;38340;52.964;6.086;2023-05-06T02:34:29;11.77;;;10.45;;
52414;SDS011;38340;52.964;6.086;2023-05-06T02:36:55;13.68;;;11.95;;
52414;SDS011;38340;52.964;6.086;2023-05-06T02:39:21;15.27;;;12.32;;
52414;SDS011;38340;52.964;6.086;2023-05-06T02:41:47;16.10;;;12.38;;
52414;SDS011;38340;52.964;6.086;2023-05-06T02:44:12;17.27;;;12.93;;
52414;SDS011;38340;52.964;6.086;2023-05-06T02:46:38;16.50;;;12.68;;
52414;SDS011;38340;52.964;6.086;2023-05-06T02:49:04;21.92;;;12.35;;
52414;SDS011;38340;52.964;6.086;2023-05-06T02:51:29;16.20;;;11.15;;
52414;SDS011;38340;52.964;6.086;2023-05-06T02:53:55;14.90;;;10.48;;
52414;SDS011;38340;52.964;6.086;2023-05-06T02:56:21;9.95;;;8.63;;
52414;SDS011;38340;52.964;6.086;2023-05-06T02:58:46;11.05;;;9.57;;
52414;SDS011;38340;52.964;6.086;2023-05-06T03:01:12;13.48;;;10.00;;
52414;SDS011;38340;52.964;6.086;2023-05-06T03:03:37;10.95;;;9.45;;
52414;SDS011;38340;52.964;6.086;2023-05-06T03:06:03;130.40;;;15.27;;
52414;SDS011;38340;52.964;6.086;2023-05-06T03:08:29;13.70;;;9.07;;
52414;SDS011;38340;52.964;6.086;2023-05-06T03:10:55;9.68;;;8.38;;
52414;SDS011;38340;52.964;6.086;2023-05-06T03:13:20;15.80;;;7.90;;
52414;SDS011;38340;52.964;6.086;2023-05-06T03:15:52;7.85;;;7.03;;
52414;SDS011;38340;52.964;6.086;2023-05-06T03:18:18;87.88;;;13.73;;
52414;SDS011;38340;52.964;6.086;2023-05-06T03:20:46;66.10;;;10.77;;
52414;SDS011;38340;52.964;6.086;2023-05-06T03:23:12;49.53;;;9.52;;
52414;SDS011;38340;52.964;6.086;2023-05-06T03:25:38;13.15;;;7.38;;
52414;SDS011;38340;52.964;6.086;2023-05-06T03:28:04;23.45;;;8.27;;
52414;SDS011;38340;52.964;6.086;2023-05-06T03:30:30;27.38;;;9.32;;
52414;SDS011;38340;52.964;6.086;2023-05-06T03:32:56;11.60;;;7.57;;
52414;SDS011;38340;52.964;6.086;2023-05-06T03:35:24;54.08;;;10.95;;
52414;SDS011;38340;52.964;6.086;2023-05-06T03:37:50;27.40;;;7.97;;
52414;SDS011;38340;52.964;6.086;2023-05-06T03:40:16;13.38;;;6.40;;
52414;SDS011;38340;52.964;6.086;2023-05-06T03:42:41;14.35;;;7.43;;
52414;SDS011;38340;52.964;6.086;2023-05-06T03:45:08;50.42;;;8.43;;
52414;SDS011;38340;52.964;6.086;2023-05-06T03:47:34;48.22;;;8.80;;
52414;SDS011;38340;52.964;6.086;2023-05-06T03:49:59;30.42;;;7.88;;
52414;SDS011;38340;52.964;6.086;2023-05-06T03:52:25;22.55;;;8.15;;
52414;SDS011;38340;52.964;6.086;2023-05-06T03:54:51;9.68;;;7.88;;
52414;SDS011;38340;52.964;6.086;2023-05-06T03:57:16;6.35;;;5.75;;
52414;SDS011;38340;52.964;6.086;2023-05-06T03:59:42;6.28;;;5.68;;
52414;SDS011;38340;52.964;6.086;2023-05-06T04:02:08;7.00;;;6.30;;
52414;SDS011;38340;52.964;6.086;2023-05-06T04:04:33;6.95;;;6.25;;
52414;SDS011;38340;52.964;6.086;2023-05-06T04:06:59;14.27;;;6.53;;
52414;SDS011;38340;52.964;6.086;2023-05-06T04:09:25;9.63;;;6.07;;
52414;SDS011;38340;52.964;6.086;2023-05-06T04:11:51;13.48;;;6.78;;
52414;SDS011;38340;52.964;6.086;2023-05-06T04:14:16;8.93;;;8.02;;
52414;SDS011;38340;52.964;6.086;2023-05-06T04:16:42;9.43;;;8.10;;
52414;SDS011;38340;52.964;6.086;2023-05-06T04:19:08;10.27;;;8.75;;
52414;SDS011;38340;52.964;6.086;2023-05-06T04:21:33;9.88;;;8.45;;
52414;SDS011;38340;52.964;6.086;2023-05-06T04:23:59;11.27;;;9.10;;
52414;SDS011;38340;52.964;6.086;2023-05-06T04:26:25;13.07;;;9.40;;
52414;SDS011;38340;52.964;6.086;2023-05-06T04:28:50;13.98;;;11.02;;
52414;SDS011;38340;52.964;6.086;2023-05-06T04:31:16;14.65;;;11.27;;
52414;SDS011;38340;52.964;6.086;2023-05-06T04:33:42;15.50;;;13.00;;
52414;SDS011;38340;52.964;6.086;2023-05-06T04:36:08;18.35;;;14.10;;
52414;SDS011;38340;52.964;6.086;2023-05-06T04:38:34;19.42;;;14.48;;
52414;SDS011;38340;52.964;6.086;2023-05-06T04:41:01;21.40;;;15.55;;
52414;SDS011;38340;52.964;6.086;2023-05-06T04:43:27;20.67;;;15.20;;
52414;SDS011;38340;52.964;6.086;2023-05-06T04:45:53;20.52;;;14.43;;
52414;SDS011;38340;52.964;6.086;2023-05-06T04:48:19;22.70;;;15.68;;
52414;SDS011;38340;52.964;6.086;2023-05-06T04:50:49;16.77;;;13.20;;
52414;SDS011;38340;52.964;6.086;2023-05-06T04:53:15;19.90;;;14.55;;
52414;SDS011;38340;52.964;6.086;2023-05-06T04:55:41;19.58;;;14.95;;
52414;SDS011;38340;52.964;6.086;2023-05-06T04:58:07;20.88;;;15.90;;
52414;SDS011;38340;52.964;6.086;2023-05-06T05:00:33;20.15;;;15.40;;
52414;SDS011;38340;52.964;6.086;2023-05-06T05:02:59;20.98;;;15.30;;
52414;SDS011;38340;52.964;6.086;2023-05-06T05:05:26;22.52;;;16.58;;
52414;SDS011;38340;52.964;6.086;2023-05-06T05:07:52;26.73;;;17.23;;
52414;SDS011;38340;52.964;6.086;2023-05-06T05:10:18;26.15;;;17.55;;
52414;SDS011;38340;52.964;6.086;2023-05-06T05:12:44;23.75;;;17.60;;
52414;SDS011;38340;52.964;6.086;2023-05-06T05:15:10;23.00;;;16.90;;
52414;SDS011;38340;52.964;6.086;2023-05-06T05:17:36;20.33;;;16.15;;
52414;SDS011;38340;52.964;6.086;2023-05-06T05:20:02;23.83;;;15.75;;
52414;SDS011;38340;52.964;6.086;2023-05-06T05:22:29;23.95;;;18.13;;
52414;SDS011;38340;52.964;6.086;2023-05-06T05:24:55;23.38;;;17.48;;
52414;SDS011;38340;52.964;6.086;2023-05-06T05:27:21;29.98;;;18.52;;
52414;SDS011;38340;52.964;6.086;2023-05-06T05:29:47;28.05;;;19.05;;
52414;SDS011;38340;52.964;6.086;2023-05-06T05:32:13;28.17;;;19.35;;
52414;SDS011;38340;52.964;6.086;2023-05-06T05:34:40;26.00;;;17.83;;
52414;SDS011;38340;52.964;6.086;2023-05-06T05:37:05;24.10;;;15.80;;
52414;SDS011;38340;52.964;6.086;2023-05-06T05:39:31;23.80;;;16.83;;
52414;SDS011;38340;52.964;6.086;2023-05-06T05:41:57;23.70;;;16.90;;
52414;SDS011;38340;52.964;6.086;2023-05-06T05:44:22;24.70;;;16.40;;
52414;SDS011;38340;52.964;6.086;2023-05-06T05:46:48;20.55;;;15.95;;
52414;SDS011;38340;52.964;6.086;2023-05-06T05:49:14;20.98;;;16.63;;
52414;SDS011;38340;52.964;6.086;2023-05-06T05:51:40;20.23;;;15.25;;
52414;SDS011;38340;52.964;6.086;2023-05-06T05:54:06;19.38;;;16.02;;
52414;SDS011;38340;52.964;6.086;2023-05-06T05:56:31;19.63;;;15.95;;
52414;SDS011;38340;52.964;6.086;2023-05-06T05:58:57;21.05;;;15.30;;
52414;SDS011;38340;52.964;6.086;2023-05-06T06:01:23;19.70;;;15.50;;
52414;SDS011;38340;52.964;6.086;2023-05-06T06:03:48;20.90;;;16.25;;
52414;SDS011;38340;52.964;6.086;2023-05-06T06:06:14;20.90;;;16.38;;
52414;SDS011;38340;52.964;6.086;2023-05-06T06:08:40;18.75;;;15.25;;
52414;SDS011;38340;52.964;6.086;2023-05-06T06:11:05;22.83;;;16.77;;
52414;SDS011;38340;52.964;6.086;2023-05-06T06:13:31;19.48;;;15.50;;
52414;SDS011;38340;52.964;6.086;2023-05-06T06:15:57;22.30;;;16.58;;
52414;SDS011;38340;52.964;6.086;2023-05-06T06:18:23;21.42;;;16.58;;
52414;SDS011;38340;52.964;6.086;2023-05-06T06:20:49;20.65;;;15.88;;
52414;SDS011;38340;52.964;6.086;2023-05-06T06:23:14;25.15;;;17.40;;
52414;SDS011;38340;52.964;6.086;2023-05-06T06:25:40;21.00;;;16.42;;
52414;SDS011;38340;52.964;6.086;2023-05-06T06:28:06;20.63;;;17.08;;
52414;SDS011;38340;52.964;6.086;2023-05-06T06:30:32;22.75;;;16.90;;
52414;SDS011;38340;52.964;6.086;2023-05-06T06:32:57;20.85;;;17.20;;
52414;SDS011;38340;52.964;6.086;2023-05-06T06:35:25;23.20;;;17.77;;
52414;SDS011;38340;52.964;6.086;2023-05-06T06:37:51;23.35;;;17.48;;
52414;SDS011;38340;52.964;6.086;2023-05-06T06:40:17;26.23;;;17.98;;
52414;SDS011;38340;52.964;6.086;2023-05-06T06:42:43;22.50;;;17.02;;
52414;SDS011;38340;52.964;6.086;2023-05-06T06:45:11;20.40;;;17.80;;
52414;SDS011;38340;52.964;6.086;2023-05-06T06:47:38;24.40;;;17.20;;
52414;SDS011;38340;52.964;6.086;2023-05-06T06:50:03;21.35;;;17.15;;
52414;SDS011;38340;52.964;6.086;2023-05-06T06:52:30;21.25;;;16.52;;
52414;SDS011;38340;52.964;6.086;2023-05-06T06:54:56;24.10;;;17.77;;
52414;SDS011;38340;52.964;6.086;2023-05-06T06:57:22;25.42;;;17.70;;
52414;SDS011;38340;52.964;6.086;2023-05-06T06:59:47;20.08;;;16.67;;
52414;SDS011;38340;52.964;6.086;2023-05-06T07:02:15;19.90;;;16.73;;
52414;SDS011;38340;52.964;6.086;2023-05-06T07:04:41;20.25;;;15.93;;
52414;SDS011;38340;52.964;6.086;2023-05-06T07:07:07;20.00;;;16.38;;
52414;SDS011;38340;52.964;6.086;2023-05-06T07:09:33;24.15;;;17.92;;
52414;SDS011;38340;52.964;6.086;2023-05-06T07:11:58;22.17;;;16.88;;
52414;SDS011;38340;52.964;6.086;2023-05-06T07:14:25;20.35;;;17.42;;
52414;SDS011;38340;52.964;6.086;2023-05-06T07:16:51;22.80;;;17.10;;
52414;SDS011;38340;52.964;6.086;2023-05-06T07:19:17;20.42;;;16.48;;
52414;SDS011;38340;52.964;6.086;2023-05-06T07:21:42;22.55;;;16.27;;
52414;SDS011;38340;52.964;6.086;2023-05-06T07:24:08;20.10;;;17.30;;
52414;SDS011;38340;52.964;6.086;2023-05-06T07:26:34;20.98;;;16.80;;
52414;SDS011;38340;52.964;6.086;2023-05-06T07:29:00;18.92;;;16.23;;
52414;SDS011;38340;52.964;6.086;2023-05-06T07:31:26;17.40;;;15.35;;
52414;SDS011;38340;52.964;6.086;2023-05-06T07:33:51;16.63;;;14.85;;
52414;SDS011;38340;52.964;6.086;2023-05-06T07:36:17;18.50;;;14.18;;
52414;SDS011;38340;52.964;6.086;2023-05-06T07:38:43;17.52;;;15.20;;
52414;SDS011;38340;52.964;6.086;2023-05-06T07:41:09;18.80;;;15.35;;
52414;SDS011;38340;52.964;6.086;2023-05-06T07:43:35;17.50;;;15.57;;
52414;SDS011;38340;52.964;6.086;2023-05-06T07:46:00;18.27;;;15.45;;
52414;SDS011;38340;52.964;6.086;2023-05-06T07:48:30;17.75;;;14.65;;
52414;SDS011;38340;52.964;6.086;2023-05-06T07:50:57;16.73;;;14.48;;
52414;SDS011;38340;52.964;6.086;2023-05-06T07:53:23;21.50;;;15.55;;
52414;SDS011;38340;52.964;6.086;2023-05-06T07:55:50;16.88;;;15.02;;
52414;SDS011;38340;52.964;6.086;2023-05-06T07:58:17;18.13;;;15.75;;
52414;SDS011;38340;52.964;6.086;2023-05-06T08:00:43;16.80;;;14.93;;
52414;SDS011;38340;52.964;6.086;2023-05-06T08:03:08;19.13;;;14.13;;
52414;SDS011;38340;52.964;6.086;2023-05-06T08:05:34;15.80;;;13.02;;
52414;SDS011;38340;52.964;6.086;2023-05-06T08:08:00;17.63;;;13.55;;
52414;SDS011;38340;52.964;6.086;2023-05-06T08:10:26;18.10;;;14.25;;
52414;SDS011;38340;52.964;6.086;2023-05-06T08:12:51;13.48;;;12.07;;
52414;SDS011;38340;52.964;6.086;2023-05-06T08:15:17;13.65;;;12.25;;
52414;SDS011;38340;52.964;6.086;2023-05-06T08:17:43;14.70;;;13.20;;
52414;SDS011;38340;52.964;6.086;2023-05-06T08:20:09;13.30;;;11.07;;
52414;SDS011;38340;52.964;6.086;2023-05-06T08:22:35;13.30;;;11.80;;
52414;SDS011;38340;52.964;6.086;2023-05-06T08:25:01;11.60;;;10.40;;
52414;SDS011;38340;52.964;6.086;2023-05-06T08:27:27;12.65;;;11.35;;
52414;SDS011;38340;52.964;6.086;2023-05-06T08:29:53;11.52;;;10.40;;
52414;SDS011;38340;52.964;6.086;2023-05-06T08:32:19;10.70;;;9.23;;
52414;SDS011;38340;52.964;6.086;2023-05-06T08:34:45;18.70;;;10.32;;
52414;SDS011;38340;52.964;6.086;2023-05-06T08:37:10;9.82;;;8.82;;
52414;SDS011;38340;52.964;6.086;2023-05-06T08:39:36;11.88;;;9.55;;
52414;SDS011;38340;52.964;6.086;2023-05-06T08:42:02;10.40;;;9.32;;
52414;SDS011;38340;52.964;6.086;2023-05-06T08:44:29;10.40;;;9.25;;
52414;SDS011;38340;52.964;6.086;2023-05-06T08:46:55;11.23;;;10.10;;
52414;SDS011;38340;52.964;6.086;2023-05-06T08:49:21;10.48;;;9.38;;
52414;SDS011;38340;52.964;6.086;2023-05-06T08:51:47;11.40;;;8.98;;
52414;SDS011;38340;52.964;6.086;2023-05-06T08:54:16;11.07;;;9.55;;
52414;SDS011;38340;52.964;6.086;2023-05-06T08:56:44;12.90;;;9.50;;
52414;SDS011;38340;52.964;6.086;2023-05-06T08:59:12;11.52;;;9.13;;
52414;SDS011;38340;52.964;6.086;2023-05-06T09:01:38;10.23;;;9.25;;
52414;SDS011;38340;52.964;6.086;2023-05-06T09:04:04;11.75;;;8.82;;
52414;SDS011;38340;52.964;6.086;2023-05-06T09:06:31;10.90;;;9.80;;
52414;SDS011;38340;52.964;6.086;2023-05-06T09:08:58;10.20;;;9.20;;
52414;SDS011;38340;52.964;6.086;2023-05-06T09:11:25;9.98;;;8.98;;
52414;SDS011;38340;52.964;6.086;2023-05-06T09:14:06;11.07;;;9.57;;
52414;SDS011;38340;52.964;6.086;2023-05-06T09:16:37;10.13;;;9.13;;
52414;SDS011;38340;52.964;6.086;2023-05-06T09:19:04;9.98;;;8.98;;
52414;SDS011;38340;52.964;6.086;2023-05-06T09:21:34;11.77;;;9.68;;
52414;SDS011;38340;52.964;6.086;2023-05-06T09:24:02;10.43;;;9.48;;
52414;SDS011;38340;52.964;6.086;2023-05-06T09:26:29;11.20;;;9.88;;
52414;SDS011;38340;52.964;6.086;2023-05-06T09:28:56;12.73;;;9.88;;
52414;SDS011;38340;52.964;6.086;2023-05-06T09:31:23;12.30;;;9.05;;
52414;SDS011;38340;52.964;6.086;2023-05-06T09:33:52;11.38;;;9.95;;
52414;SDS011;38340;52.964;6.086;2023-05-06T09:36:19;11.23;;;9.35;;
52414;SDS011;38340;52.964;6.086;2023-05-06T09:38:45;11.10;;;9.98;;
52414;SDS011;38340;52.964;6.086;2023-05-06T09:41:12;12.50;;;9.75;;
52414;SDS011;38340;52.964;6.086;2023-05-06T09:43:38;10.75;;;9.65;;
52414;SDS011;38340;52.964;6.086;2023-05-06T09:46:09;13.07;;;10.98;;
52414;SDS011;38340;52.964;6.086;2023-05-06T09:48:36;12.00;;;10.48;;
52414;SDS011;38340;52.964;6.086;2023-05-06T09:51:03;13.48;;;11.57;;
52414;SDS011;38340;52.964;6.086;2023-05-06T09:53:31;16.05;;;11.75;;
52414;SDS011;38340;52.964;6.086;2023-05-06T09:56:05;12.93;;;11.60;;
52414;SDS011;38340;52.964;6.086;2023-05-06T09:58:32;13.60;;;12.10;;
52414;SDS011;38340;52.964;6.086;2023-05-06T10:00:59;15.75;;;13.23;;
52414;SDS011;38340;52.964;6.086;2023-05-06T10:03:28;14.52;;;12.70;;
52414;SDS011;38340;52.964;6.086;2023-05-06T10:05:55;13.88;;;12.48;;
52414;SDS011;38340;52.964;6.086;2023-05-06T10:08:23;15.70;;;12.48;;
52414;SDS011;38340;52.964;6.086;2023-05-06T10:10:50;14.07;;;12.68;;
52414;SDS011;38340;52.964;6.086;2023-05-06T10:13:16;15.50;;;12.40;;
52414;SDS011;38340;52.964;6.086;2023-05-06T10:15:46;14.43;;;12.73;;
52414;SDS011;38340;52.964;6.086;2023-05-06T10:18:16;14.23;;;12.73;;
52414;SDS011;38340;52.964;6.086;2023-05-06T10:20:44;15.23;;;12.23;;
52414;SDS011;38340;52.964;6.086;2023-05-06T10:26:13;14.75;;;12.93;;
52414;SDS011;38340;52.964;6.086;2023-05-06T10:28:42;15.23;;;12.05;;
52414;SDS011;38340;52.964;6.086;2023-05-06T10:31:11;14.88;;;12.95;;
52414;SDS011;38340;52.964;6.086;2023-05-06T10:33:44;13.90;;;12.40;;
52414;SDS011;38340;52.964;6.086;2023-05-06T10:36:18;16.90;;;12.90;;
52414;SDS011;38340;52.964;6.086;2023-05-06T10:38:54;15.90;;;12.00;;
52414;SDS011;38340;52.964;6.086;2023-05-06T10:41:24;13.55;;;11.90;;
52414;SDS011;38340;52.964;6.086;2023-05-06T10:43:52;14.02;;;12.02;;
52414;SDS011;38340;52.964;6.086;2023-05-06T10:46:25;14.38;;;11.90;;
52414;SDS011;38340;52.964;6.086;2023-05-06T10:51:33;15.60;;;11.85;;
52414;SDS011;38340;52.964;6.086;2023-05-06T10:56:32;12.80;;;10.75;;
52414;SDS011;38340;52.964;6.086;2023-05-06T10:59:04;14.13;;;11.70;;
52414;SDS011;38340;52.964;6.086;2023-05-06T11:01:38;14.10;;;12.70;;
52414;SDS011;38340;52.964;6.086;2023-05-06T11:04:08;13.82;;;11.77;;
52414;SDS011;38340;52.964;6.086;2023-05-06T11:09:06;18.60;;;14.30;;
52414;SDS011;38340;52.964;6.086;2023-05-06T11:14:24;23.98;;;14.85;;
52414;SDS011;38340;52.964;6.086;2023-05-06T11:17:03;27.38;;;15.90;;
52414;SDS011;38340;52.964;6.086;2023-05-06T11:19:37;27.70;;;14.88;;
52414;SDS011;38340;52.964;6.086;2023-05-06T11:22:04;20.70;;;12.20;;
52414;SDS011;38340;52.964;6.086;2023-05-06T11:27:02;18.83;;;14.27;;
52414;SDS011;38340;52.964;6.086;2023-05-06T11:29:28;16.98;;;11.65;;
52414;SDS011;38340;52.964;6.086;2023-05-06T11:31:53;18.13;;;12.50;;
52414;SDS011;38340;52.964;6.086;2023-05-06T11:34:23;21.23;;;11.77;;
52414;SDS011;38340;52.964;6.086;2023-05-06T11:36:57;22.30;;;12.20;;
52414;SDS011;38340;52.964;6.086;2023-05-06T11:39:26;11.95;;;10.73;;
52414;SDS011;38340;52.964;6.086;2023-05-06T11:41:57;11.52;;;10.30;;
52414;SDS011;38340;52.964;6.086;2023-05-06T11:44:28;13.20;;;10.00;;
52414;SDS011;38340;52.964;6.086;2023-05-06T11:46:56;14.65;;;9.95;;
52414;SDS011;38340;52.964;6.086;2023-05-06T11:49:23;13.85;;;10.65;;
52414;SDS011;38340;52.964;6.086;2023-05-06T11:51:50;18.77;;;10.82;;
52414;SDS011;38340;52.964;6.086;2023-05-06T11:54:15;12.88;;;9.88;;
52414;SDS011;38340;52.964;6.086;2023-05-06T11:59:13;15.52;;;10.98;;
52414;SDS011;38340;52.964;6.086;2023-05-06T12:01:40;16.80;;;11.32;;
52414;SDS011;38340;52.964;6.086;2023-05-06T12:04:06;14.00;;;11.93;;
52414;SDS011;38340;52.964;6.086;2023-05-06T12:06:35;15.65;;;12.30;;
52414;SDS011;38340;52.964;6.086;2023-05-06T12:09:02;15.05;;;10.90;;
52414;SDS011;38340;52.964;6.086;2023-05-06T12:11:29;14.20;;;10.43;;
52414;SDS011;38340;52.964;6.086;2023-05-06T12:13:57;12.32;;;10.57;;
52414;SDS011;38340;52.964;6.086;2023-05-06T12:16:23;10.95;;;9.32;;
52414;SDS011;38340;52.964;6.086;2023-05-06T12:18:51;12.02;;;10.38;;
52414;SDS011;38340;52.964;6.086;2023-05-06T12:21:23;11.40;;;10.20;;
52414;SDS011;38340;52.964;6.086;2023-05-06T12:23:53;11.50;;;9.20;;
52414;SDS011;38340;52.964;6.086;2023-05-06T12:26:23;11.73;;;8.68;;
52414;SDS011;38340;52.964;6.086;2023-05-06T12:31:56;6.90;;;6.10;;
52414;SDS011;38340;52.964;6.086;2023-05-06T12:34:38;7.78;;;6.00;;
52414;SDS011;38340;52.964;6.086;2023-05-06T12:37:06;6.60;;;6.00;;
52414;SDS011;38340;52.964;6.086;2023-05-06T12:39:36;7.35;;;5.60;;
52414;SDS011;38340;52.964;6.086;2023-05-06T12:42:03;6.40;;;5.78;;
52414;SDS011;38340;52.964;6.086;2023-05-06T12:44:35;6.38;;;5.30;;
52414;SDS011;38340;52.964;6.086;2023-05-06T12:47:06;5.57;;;5.07;;
52414;SDS011;38340;52.964;6.086;2023-05-06T12:52:28;5.47;;;4.57;;
52414;SDS011;38340;52.964;6.086;2023-05-06T12:54:54;4.93;;;4.45;;
52414;SDS011;38340;52.964;6.086;2023-05-06T12:57:21;4.57;;;3.92;;
52414;SDS011;38340;52.964;6.086;2023-05-06T12:59:47;5.05;;;4.65;;
52414;SDS011;38340;52.964;6.086;2023-05-06T13:02:14;5.72;;;5.15;;
52414;SDS011;38340;52.964;6.086;2023-05-06T13:04:40;5.88;;;5.35;;
52414;SDS011;38340;52.964;6.086;2023-05-06T13:07:05;5.53;;;4.97;;
52414;SDS011;38340;52.964;6.086;2023-05-06T13:09:31;6.63;;;5.75;;
52414;SDS011;38340;52.964;6.086;2023-05-06T13:11:57;6.25;;;5.40;;
52414;SDS011;38340;52.964;6.086;2023-05-06T13:14:23;6.07;;;5.57;;
52414;SDS011;38340;52.964;6.086;2023-05-06T13:16:49;5.40;;;5.00;;
52414;SDS011;38340;52.964;6.086;2023-05-06T13:19:15;5.15;;;4.72;;
52414;SDS011;38340;52.964;6.086;2023-05-06T13:21:41;5.03;;;4.63;;
52414;SDS011;38340;52.964;6.086;2023-05-06T13:24:07;6.10;;;5.60;;
52414;SDS011;38340;52.964;6.086;2023-05-06T13:26:33;6.57;;;5.32;;
52414;SDS011;38340;52.964;6.086;2023-05-06T13:29:00;6.03;;;5.03;;
52414;SDS011;38340;52.964;6.086;2023-05-06T13:31:26;5.20;;;4.60;;
52414;SDS011;38340;52.964;6.086;2023-05-06T13:33:53;8.00;;;5.45;;
52414;SDS011;38340;52.964;6.086;2023-05-06T13:36:19;6.45;;;5.20;;
52414;SDS011;38340;52.964;6.086;2023-05-06T13:38:48;5.53;;;5.03;;
52414;SDS011;38340;52.964;6.086;2023-05-06T13:41:14;6.25;;;5.65;;
52414;SDS011;38340;52.964;6.086;2023-05-06T13:43:40;7.43;;;6.68;;
52414;SDS011;38340;52.964;6.086;2023-05-06T13:46:07;8.75;;;7.38;;
52414;SDS011;38340;52.964;6.086;2023-05-06T13:48:33;7.20;;;6.50;;
52414;SDS011;38340;52.964;6.086;2023-05-06T13:50:58;6.78;;;6.07;;
52414;SDS011;38340;52.964;6.086;2023-05-06T13:53:24;8.27;;;7.03;;
52414;SDS011;38340;52.964;6.086;2023-05-06T13:55:50;8.23;;;7.35;;
52414;SDS011;38340;52.964;6.086;2023-05-06T13:58:16;8.48;;;7.53;;
52414;SDS011;38340;52.964;6.086;2023-05-06T14:00:42;11.32;;;7.80;;
52414;SDS011;38340;52.964;6.086;2023-05-06T14:03:08;7.70;;;6.90;;
52414;SDS011;38340;52.964;6.086;2023-05-06T14:05:34;8.05;;;6.80;;
52414;SDS011;38340;52.964;6.086;2023-05-06T14:08:00;7.47;;;6.78;;
52414;SDS011;38340;52.964;6.086;2023-05-06T14:10:25;7.65;;;6.90;;
52414;SDS011;38340;52.964;6.086;2023-05-06T14:12:51;8.60;;;6.93;;
52414;SDS011;38340;52.964;6.086;2023-05-06T14:15:17;9.13;;;7.40;;
52414;SDS011;38340;52.964;6.086;2023-05-06T14:17:42;9.15;;;7.30;;
52414;SDS011;38340;52.964;6.086;2023-05-06T14:20:08;8.55;;;7.00;;
52414;SDS011;38340;52.964;6.086;2023-05-06T14:22:39;8.15;;;7.20;;
52414;SDS011;38340;52.964;6.086;2023-05-06T14:25:05;8.93;;;6.97;;
52414;SDS011;38340;52.964;6.086;2023-05-06T14:27:31;8.15;;;6.72;;
52414;SDS011;38340;52.964;6.086;2023-05-06T14:29:57;8.77;;;7.70;;
52414;SDS011;38340;52.964;6.086;2023-05-06T14:32:23;7.47;;;6.85;;
52414;SDS011;38340;52.964;6.086;2023-05-06T14:34:48;8.95;;;7.53;;
52414;SDS011;38340;52.964;6.086;2023-05-06T14:37:14;8.27;;;7.35;;
52414;SDS011;38340;52.964;6.086;2023-05-06T14:39:40;8.50;;;7.70;;
52414;SDS011;38340;52.964;6.086;2023-05-06T14:42:06;9.45;;;8.45;;
52414;SDS011;38340;52.964;6.086;2023-05-06T14:44:33;11.60;;;8.18;;
52414;SDS011;38340;52.964;6.086;2023-05-06T14:46:58;8.15;;;7.30;;
52414;SDS011;38340;52.964;6.086;2023-05-06T14:49:24;8.45;;;7.65;;
52414;SDS011;38340;52.964;6.086;2023-05-06T14:51:50;8.65;;;7.10;;
52414;SDS011;38340;52.964;6.086;2023-05-06T14:54:15;8.60;;;7.80;;
52414;SDS011;38340;52.964;6.086;2023-05-06T14:56:41;8.52;;;7.47;;
52414;SDS011;38340;52.964;6.086;2023-05-06T14:59:11;10.15;;;8.13;;
52414;SDS011;38340;52.964;6.086;2023-05-06T15:01:36;10.23;;;7.80;;
52414;SDS011;38340;52.964;6.086;2023-05-06T15:04:02;10.88;;;8.02;;
52414;SDS011;38340;52.964;6.086;2023-05-06T15:06:28;9.38;;;7.75;;